ADDS METAR Data INFO
IDs: Format: Raw Decoded Include TAF

Data at: 1612 UTC 14 Aug 2018

KLUD 141555Z AUTO 11006KT 5SM BR BKN055 20/19 A2999 RMK AO2 P0006 T02040190
KLUD 141535Z AUTO 13007KT 3SM RA SCT009 SCT017 OVC055 20/19 A2999 RMK AO2 P0005 T02030185
KLUD 141515Z AUTO 14005KT 2SM RA BKN009 BKN013 OVC055 20/19 A2998 RMK AO2 P0003 T01990185
KLUD 141455Z AUTO 16016G28KT 1 3/4SM -RA SCT005 BKN009 OVC018 20/18 A2999 RMK AO2 P0025 60031 T01980181
KLUD 141435Z AUTO 18017G24KT 3/4SM RA BKN009 OVC016 20/18 A3000 RMK AO2 P0016 T02000182
KLUD 141415Z AUTO 17015G21KT 7SM SCT008 SCT012 BKN060 22/19 A2998 RMK AO2 P0001 T02150188
KLUD 141355Z AUTO 17014G19KT 3SM -RA SCT008 BKN012 OVC060 21/19 A2998 RMK AO2 P0006 T02130188
KLUD 141335Z AUTO 18009G19KT 7SM BKN060 22/18 A2997 RMK AO2 P0004 T02220176
KLUD 141315Z AUTO 17014G20KT 3SM RA OVC060 22/18 A2997 RMK AO2 P0004 T02230175
KLUD 141255Z AUTO 18011G17KT 7SM BKN060 BKN080 24/18 A2997 RMK AO2 T02350182
KLUD 141235Z AUTO 17010G17KT 7SM SCT070 24/20 A2996 RMK AO2 T02350199
KLUD 141215Z AUTO 17008KT 7SM SCT070 SCT090 23/21 A2995 RMK AO2 T02330208
KLUD 141155Z AUTO 16006KT 7SM CLR 24/21 A2994 RMK AO2 70145 T02350210 10235 20221
KLUD 141135Z AUTO 16008KT 7SM SCT070 24/21 A2994 RMK AO2 T02350212
KLUD 141115Z AUTO 16009KT 7SM BKN070 24/21 A2994 RMK AO2 T02350214
KLUD 141055Z AUTO 16008KT 7SM BKN070 24/22 A2993 RMK AO2 T02350215
KLUD 141035Z AUTO 15005KT 10SM SCT070 23/22 A2993 RMK AO2 T02330215
KLUD 141015Z AUTO 13004KT 7SM SCT070 SCT095 23/22 A2993 RMK AO2 T02280215
KLUD 140955Z AUTO 00000KT 7SM CLR 23/22 A2992 RMK AO2 T02270215
KLUD 140935Z AUTO 00000KT 7SM CLR 23/21 A2993 RMK AO2 T02260214
KLUD 140915Z AUTO 00000KT 7SM CLR 22/21 A2993 RMK AO2 T02220213
KLUD 140855Z AUTO 00000KT 5SM BR CLR 22/21 A2994 RMK AO2 T02230213
KLUD 140835Z AUTO 00000KT 7SM CLR 23/21 A2994 RMK AO2 T02250212
KLUD 140815Z AUTO 00000KT 7SM CLR 22/21 A2994 RMK AO2 T02220212
KLUD 140755Z AUTO 00000KT 7SM CLR 22/21 A2994 RMK AO2 T02210212
KLUD 140735Z AUTO 00000KT 7SM CLR 22/21 A2994 RMK AO2 T02230212
KLUD 140715Z AUTO 00000KT 7SM CLR 22/21 A2995 RMK AO2 T02210211
KLUD 140655Z AUTO 00000KT 10SM SCT070 22/21 A2995 RMK AO2 T02220211
KLUD 140635Z AUTO 00000KT 7SM SCT070 SCT085 22/21 A2997 RMK AO2 T02230214
KLUD 140615Z AUTO 00000KT 10SM SCT070 22/21 A2995 RMK AO2 T02220213
KLUD 140555Z AUTO 00000KT 7SM SCT007 SCT013 SCT027 22/21 A2996 RMK AO2 T02230213 10226 20218 402620215
KLUD 140535Z AUTO 14005KT 10SM SCT075 23/21 A2997 RMK AO2 T02250212
KLUD 140515Z AUTO 00000KT 10SM SCT070 23/21 A2996 RMK AO2 T02250211
KLUD 140455Z AUTO 00000KT 7SM SCT070 23/21 A2995 RMK AO2 T02250212
KLUD 140435Z AUTO 00000KT 10SM BKN070 23/21 A2995 RMK AO2 T02250213
KLUD 140415Z AUTO 00000KT 7SM SCT080 22/21 A2994 RMK AO2 T02220213
KLUD 140355Z AUTO 00000KT 7SM CLR 22/21 A2995 RMK AO2 T02220213
KLUD 140335Z AUTO 00000KT 7SM SCT070 SCT090 23/21 A2995 RMK AO2 T02250210
KLUD 140315Z AUTO 00000KT 10SM SCT070 BKN090 23/21 A2995 RMK AO2 T02250210
KLUD 140255Z AUTO 00000KT 7SM SCT070 SCT090 SCT110 23/21 A2995 RMK AO2 T02250211
KLUD 140235Z AUTO 00000KT 10SM SCT090 SCT110 23/21 A2994 RMK AO2 T02250208
KLUD 140215Z AUTO 00000KT 10SM SCT090 22/21 A2994 RMK AO2 T02230210
KLUD 140155Z AUTO 00000KT 10SM SCT080 22/21 A2993 RMK AO2 T02210210
KLUD 140135Z AUTO 00000KT 7SM SCT080 22/21 A2993 RMK AO2 T02200210
KLUD 140115Z AUTO 00000KT 7SM CLR 22/21 A2993 RMK AO2 T02200210
KLUD 140055Z AUTO 00000KT 7SM CLR 22/21 A2993 RMK AO2 T02200210
KLUD 140035Z AUTO 00000KT 10SM SCT070 22/21 A2993 RMK AO2 T02180210
KLUD 140015Z AUTO 00000KT 7SM CLR 22/21 A2994 RMK AO2 T02190208
KLUD 132355Z AUTO 26004KT 7SM CLR 22/21 A2995 RMK AO2 P0001 60084 T02180209 10260 20215
KLUD 132335Z AUTO 25007KT 7SM CLR 22/21 A2995 RMK AO2 P0001 T02180210
KLUD 132315Z AUTO 00000KT 7SM SCT009 SCT012 22/21 A2996 RMK AO2 T02180210
KLUD 132255Z AUTO 23007KT 5SM -RA BKN009 OVC014 22/21 A2996 RMK AO2 P0007 T02170209
KLUD 132235Z AUTO 23006G14KT 5SM -RA SCT006 OVC011 22/21 A2997 RMK AO2 P0006 T02190211
KLUD 132215Z AUTO 22006KT 3SM RA BKN006 OVC013 22/22 A2998 RMK AO2 P0004 T02220215
KLUD 132155Z AUTO 21007G17KT 3SM RA BKN009 OVC013 23/22 A2998 RMK AO2 P0005 T02250215
KLUD 132135Z AUTO 19009G16KT 7SM -RA BKN009 BKN013 23/22 A2997 RMK AO2 P0003 T02300217
KLUD 132115Z AUTO 19010G16KT 4SM -RA BKN010 OVC015 23/22 A2997 RMK AO2 P0002 T02270217
KLUD 132055Z AUTO 19008G16KT 3SM RA OVC013 23/22 A2997 RMK AO2 P0012 60070 T02250215
KLUD 132035Z AUTO 18009KT 3SM RA SCT008 BKN014 OVC019 22/21 A2998 RMK AO2 P0008 T02210213
KLUD 132015Z AUTO 18007G16KT 4SM RA SCT008 BKN012 OVC017 22/21 A2999 RMK AO2 P0002 T02200210
KLUD 131955Z AUTO 19010G14KT 1SM -RA OVC008 22/21 A2999 RMK AO2 P0055 T02150208
KLUD 131935Z AUTO 23013G17KT 3/4SM +RA OVC006 23/22 A3000 RMK AO2 P0031 T02280218
KLUD 131915Z AUTO 17006KT 3SM -RA BKN007 OVC014 24/23 A3000 RMK AO2 P0004 T02370228
KLUD 131855Z AUTO 24004KT 5SM -RA SCT008 SCT017 BKN049 24/23 A2999 RMK AO2 P0002 T02400230
KLUD 131835Z AUTO 18005KT 7SM SCT008 SCT013 BKN042 25/23 A2999 RMK AO2 P0002 T02450227
KLUD 131815Z AUTO 00000KT 3SM -RA BKN008 BKN014 OVC026 24/22 A2998 RMK AO2 P0001 T02420224
KLUD 131755Z AUTO 15008KT 7SM SCT010 SCT021 SCT043 26/23 A2999 RMK AO2 P0001 60061 T02600234 10262 20220
KLUD 131735Z AUTO 15008KT 7SM CLR 26/23 A2999 RMK AO2 P0001 T02550234
KLUD 131715Z AUTO 15006KT 3SM -RA SCT005 SCT010 BKN026 24/23 A3001 RMK AO2 P0001 T02420225
KLUD 131655Z AUTO 16008G19KT 3/4SM -RA BKN004 BKN009 OVC014 24/22 A3001 RMK AO2 VIS M1/4V5 P0058 T02400223
KLUD 131635Z AUTO 00000KT 1/2SM -RA BKN004 OVC009 24/22 A3001 RMK AO2 P0051 T02350223
KLUD 131615Z AUTO 14007KT 5SM BR OVC009 26/23 A3003 RMK AO2 T02560232
KLUD 131555Z AUTO 14005KT 5SM BR OVC007 25/23 A3003 RMK AO2 T02500231
KLUD 131535Z AUTO 15004KT 5SM BR OVC007 24/23 A3004 RMK AO2 T02430230
KLUD 131515Z AUTO 00000KT 5SM BR OVC007 24/23 A3004 RMK AO2 T02400228
KLUD 131455Z AUTO 00000KT 5SM BR OVC007 24/23 A3004 RMK AO2 60002 T02370226
KLUD 131435Z AUTO 14003KT 7SM OVC007 24/23 A3004 RMK AO2 T02350225
KLUD 131415Z AUTO 15004KT 7SM OVC005 23/22 A3005 RMK AO2 T02320224
KLUD 131355Z AUTO 14003KT 5SM BR OVC005 23/22 A3004 RMK AO2 T02300223
KLUD 131335Z AUTO 16008KT 7SM BKN005 23/22 A3004 RMK AO2 T02290222
KLUD 131315Z AUTO 16006KT 10SM SCT003 23/22 A3004 RMK AO2 T02250217
KLUD 131255Z AUTO 00000KT 10SM CLR 22/21 A3003 RMK AO2 P0002 T02210212
KLUD 131235Z AUTO 00000KT 10SM SCT010 SCT019 22/21 A3003 RMK AO2 P0002 T02200212
KLUD 131215Z AUTO 00000KT 5SM -RA SCT008 BKN013 BKN018 22/22 A3002 RMK AO2 P0002 T02200215
KLUD 131155Z AUTO 00000KT 7SM -RA SCT002 BKN010 BKN018 22/22 A3003 RMK AO2 P0022 60074 70074 T02210215 10236 20215
KLUD 131135Z AUTO 00000KT 1SM +RA OVC010 22/21 A3003 RMK AO2 P0018 T02210214
KLUD 131115Z AUTO 15008KT 2 1/2SM -RA BKN012 OVC019 22/21 A3004 RMK AO2 VIS 1 1/2V4 P0003 T02180211
KLUD 131055Z AUTO 14003KT 5SM -RA SCT007 BKN018 OVC040 22/21 A3004 RMK AO2 P0020 T02150207
KLUD 131035Z AUTO 00000KT 4SM -RA SCT009 BKN014 OVC038 22/21 A3004 RMK AO2 P0015 T02150206
KLUD 131015Z AUTO 00000KT 2 1/2SM -RA OVC007 22/21 A3004 RMK AO2 P0011 T02160206
KLUD 130955Z AUTO 21013G19KT 3/4SM +RA OVC007 22/21 A3006 RMK AO2 P0029 T02210212
KLUD 130935Z AUTO 24006KT 4SM BR SCT005 BKN008 OVC019 23/22 A3006 RMK AO2 T02260215
KLUD 130920Z AUTO 14007KT 5SM -RA BKN008 BKN012 23/22 A3004 RMK AO2 T02270215
KLUD 130855Z AUTO 15005KT 10SM CLR 23/22 A3004 RMK AO2 T02310215
KLUD 130835Z AUTO 15006KT 10SM SCT006 SCT050 23/22 A3003 RMK AO2 T02320217
KLUD 130815Z AUTO 15007KT 7SM SCT006 23/22 A3004 RMK AO2 T02320217
KLUD 130755Z AUTO 15008KT 7SM CLR 23/22 A3003 RMK AO2 T02320217
KLUD 130735Z AUTO 14007KT 7SM CLR 23/22 A3003 RMK AO2 T02330216
KLUD 130715Z AUTO 14005KT 10SM CLR 23/22 A3004 RMK AO2 T02330216
KLUD 130655Z AUTO 14006KT 7SM CLR 23/22 A3004 RMK AO2 T02330216
KLUD 130635Z AUTO 14006KT 7SM CLR 24/22 A3004 RMK AO2 T02350216
KLUD 130615Z AUTO 15008KT 10SM CLR 24/21 A3004 RMK AO2 T02350213
KLUD 130555Z AUTO 16006KT 7SM CLR 24/21 A3003 RMK AO2 T02360211 10288 20236 403130218
KLUD 130535Z AUTO 16006KT 10SM CLR 24/21 A3004 RMK AO2 T02380211
KLUD 130515Z AUTO 18008KT 10SM CLR 24/21 A3004 RMK AO2 T02380211
KLUD 130455Z AUTO 16004KT 7SM CLR 24/21 A3004 RMK AO2 T02380211
KLUD 130435Z AUTO 16007KT 10SM CLR 24/21 A3004 RMK AO2 T02380211
KLUD 130415Z AUTO 16008KT 7SM CLR 24/21 A3004 RMK AO2 T02370210